createdAt,value
2023-11-01T00:02:36.277Z,16.60
2023-11-01T00:09:38.296Z,13.43
2023-11-01T00:16:39.738Z,13.43
2023-11-01T00:23:41.170Z,14.13
2023-11-01T00:30:42.657Z,13.77
2023-11-01T00:37:44.076Z,12.70
2023-11-01T00:44:45.541Z,13.52
2023-11-01T00:51:46.988Z,13.05
2023-11-01T00:58:48.435Z,14.50
2023-11-01T01:05:49.849Z,14.02
2023-11-01T01:12:51.404Z,13.77
2023-11-01T01:19:52.807Z,13.90
2023-11-01T01:26:54.249Z,14.30
2023-11-01T01:33:55.681Z,14.52
2023-11-01T01:40:57.092Z,15.07
2023-11-01T01:47:58.685Z,14.90
2023-11-01T01:55:00.196Z,13.65
2023-11-01T02:02:02.984Z,14.75
2023-11-01T02:09:06.512Z,14.02
2023-11-01T02:16:08.890Z,14.43
2023-11-01T02:23:11.692Z,13.82
2023-11-01T02:30:17.913Z,14.40
2023-11-01T02:37:19.374Z,15.30
2023-11-01T02:44:20.812Z,14.57
2023-11-01T02:51:22.241Z,15.40
2023-11-01T02:58:25.132Z,15.25
2023-11-01T03:05:28.142Z,15.25
2023-11-01T03:12:29.617Z,16.27
2023-11-01T03:19:31.175Z,15.57
2023-11-01T03:26:32.615Z,14.40
2023-11-01T03:33:34.165Z,15.43
2023-11-01T03:40:35.629Z,16.10
2023-11-01T03:47:37.343Z,16.52
2023-11-01T03:54:38.806Z,15.93
2023-11-01T04:01:40.298Z,15.77
2023-11-01T04:08:42.034Z,15.10
2023-11-01T04:15:43.552Z,17.92
2023-11-01T04:22:44.985Z,22.08
2023-11-01T04:29:46.990Z,26.05
2023-11-01T04:36:48.934Z,21.05
2023-11-01T04:43:51.605Z,17.88
2023-11-01T04:50:53.022Z,18.27
2023-11-01T04:57:55.002Z,19.20
2023-11-01T05:04:56.384Z,19.33
2023-11-01T05:11:57.789Z,20.33
2023-11-01T05:18:59.457Z,23.52
2023-11-01T05:26:00.865Z,31.60
2023-11-01T05:33:02.449Z,33.58
2023-11-01T05:40:14.117Z,20.10
2023-11-01T05:47:15.531Z,28.58
2023-11-01T05:54:16.966Z,23.85
2023-11-01T06:01:18.425Z,19.23
2023-11-01T06:08:19.902Z,22.58
2023-11-01T06:15:21.354Z,19.40
2023-11-01T06:22:22.837Z,19.25
2023-11-01T06:29:24.318Z,22.00
2023-11-01T06:36:25.718Z,21.42
2023-11-01T06:43:28.368Z,18.15
2023-11-01T06:50:29.833Z,18.20
2023-11-01T06:57:31.573Z,18.65
2023-11-01T07:04:33.416Z,19.45
2023-11-01T07:11:34.845Z,16.83
2023-11-01T07:18:39.435Z,22.60
2023-11-01T07:25:40.852Z,20.50
2023-11-01T07:32:42.362Z,20.45
2023-11-01T07:39:43.885Z,22.30
2023-11-01T07:46:45.289Z,22.10
2023-11-01T07:53:46.821Z,23.85
2023-11-01T08:00:48.284Z,21.90
2023-11-01T08:07:50.770Z,24.38
2023-11-01T08:14:52.331Z,22.85
2023-11-01T08:21:53.875Z,26.08
2023-11-01T08:28:55.415Z,25.17
2023-11-01T08:35:56.909Z,26.88
2023-11-01T08:42:58.323Z,25.40
2023-11-01T08:49:59.818Z,30.88
2023-11-01T08:57:01.274Z,28.63
2023-11-01T09:04:02.820Z,28.35
2023-11-01T09:11:04.494Z,27.08
2023-11-01T09:18:06.554Z,28.25
2023-11-01T09:25:09.233Z,24.38
2023-11-01T09:32:12.469Z,24.98
2023-11-01T09:39:13.972Z,24.17
2023-11-01T09:46:16.370Z,25.45
2023-11-01T09:53:17.912Z,26.58
2023-11-01T10:00:20.319Z,25.63
2023-11-01T10:07:22.755Z,26.65
2023-11-01T10:14:28.886Z,24.75
2023-11-01T10:21:30.756Z,24.27
2023-11-01T10:28:35.949Z,23.15
2023-11-01T10:35:37.549Z,23.60
2023-11-01T10:42:41.282Z,23.70
2023-11-01T10:49:44.124Z,25.85
2023-11-01T10:56:46.962Z,27.02
2023-11-01T11:03:55.175Z,26.23
2023-11-01T11:11:15.999Z,23.45
2023-11-01T11:18:23.320Z,23.92
2023-11-01T11:25:52.401Z,23.35
2023-11-01T11:33:06.684Z,25.95
2023-11-01T11:40:09.051Z,26.02
2023-11-01T11:47:29.686Z,29.20
2023-11-01T11:54:32.305Z,27.38
2023-11-01T12:01:34.340Z,24.55
2023-11-01T12:08:37.057Z,30.75
2023-11-01T12:15:42.702Z,27.00
2023-11-01T12:22:45.607Z,30.90
2023-11-01T12:29:48.995Z,28.73
2023-11-01T12:37:03.213Z,31.40
2023-11-01T12:44:04.730Z,30.52
2023-11-01T12:51:07.295Z,25.08
2023-11-01T12:58:11.088Z,28.00
2023-11-01T13:05:13.721Z,31.70
2023-11-01T13:12:15.238Z,34.63
2023-11-01T13:19:17.800Z,31.45
2023-11-01T13:26:19.315Z,31.52
2023-11-01T13:33:20.945Z,29.25
2023-11-01T13:40:22.405Z,31.50
2023-11-01T13:47:26.062Z,24.60
2023-11-01T13:54:28.265Z,26.45
2023-11-01T14:01:30.073Z,28.08
2023-11-01T14:08:31.515Z,30.25
2023-11-01T14:15:34.527Z,27.48
2023-11-01T14:22:35.920Z,26.17
2023-11-01T14:29:37.908Z,26.90
2023-11-01T14:36:39.357Z,31.73
2023-11-01T14:43:40.771Z,28.70
2023-11-01T14:50:42.490Z,29.35
2023-11-01T14:57:43.973Z,29.25
2023-11-01T15:04:48.325Z,27.50
2023-11-01T15:11:50.061Z,24.88
2023-11-01T15:18:52.568Z,26.65
2023-11-01T15:25:54.073Z,26.80
2023-11-01T15:32:55.885Z,26.70
2023-11-01T15:39:57.443Z,29.15
2023-11-01T15:46:58.848Z,41.25
2023-11-01T15:54:00.409Z,57.55
2023-11-01T16:01:02.302Z,59.50
2023-11-01T16:08:03.891Z,53.90
2023-11-01T16:15:05.950Z,66.28
2023-11-01T16:22:07.479Z,76.15
2023-11-01T16:29:09.239Z,63.55
2023-11-01T16:36:10.958Z,53.13
2023-11-01T16:43:12.466Z,57.30
2023-11-01T16:50:13.943Z,71.55
2023-11-01T16:57:15.428Z,54.45
2023-11-01T17:04:16.918Z,55.10
2023-11-01T17:11:19.170Z,60.58
2023-11-01T17:18:21.735Z,73.47
2023-11-01T17:25:32.783Z,88.13
2023-11-01T17:32:34.265Z,76.70
2023-11-01T17:39:40.455Z,59.97
2023-11-01T17:46:41.920Z,64.03
2023-11-01T17:53:43.414Z,81.20
2023-11-01T18:00:45.002Z,91.75
2023-11-01T18:07:46.489Z,81.90
2023-11-01T18:14:48.171Z,67.40
2023-11-01T18:21:49.587Z,67.05
2023-11-01T18:28:53.229Z,67.38
2023-11-01T18:35:54.731Z,82.13
2023-11-01T18:42:58.390Z,90.82
2023-11-01T18:50:05.496Z,91.90
2023-11-01T18:57:16.769Z,85.90
2023-11-01T19:04:20.521Z,93.45
2023-11-01T19:11:21.993Z,93.43
2023-11-01T19:18:23.432Z,62.63
2023-11-01T19:25:24.975Z,76.82
2023-11-01T19:32:26.624Z,106.13
2023-11-01T19:39:28.196Z,79.75
2023-11-01T19:46:29.900Z,76.07
2023-11-01T19:53:31.303Z,69.65
2023-11-01T20:00:35.072Z,73.80
2023-11-01T20:07:37.500Z,79.68
2023-11-01T20:14:41.256Z,77.05
2023-11-01T20:21:43.214Z,90.70
2023-11-01T20:37:07.111Z,93.85
2023-11-01T20:44:08.622Z,72.38
2023-11-01T20:51:23.256Z,74.28
2023-11-01T20:58:28.896Z,69.82
2023-11-01T21:05:32.387Z,72.70
2023-11-01T21:12:34.169Z,53.47
2023-11-01T21:19:35.640Z,52.08
2023-11-01T21:26:37.061Z,78.35
2023-11-01T21:33:46.428Z,63.05
2023-11-01T21:47:51.350Z,59.03
2023-11-01T21:54:53.383Z,46.40
2023-11-01T22:01:56.148Z,46.30
2023-11-01T22:09:14.806Z,42.55
2023-11-01T22:41:29.342Z,37.38
2023-11-01T22:48:31.072Z,36.88
2023-11-01T22:55:41.092Z,42.08
2023-11-01T23:11:05.721Z,33.17
2023-11-01T23:18:19.800Z,34.38
2023-11-01T23:25:33.378Z,28.02
2023-11-01T23:40:59.602Z,28.52
2023-11-01T23:48:05.998Z,32.10
2023-11-01T23:55:08.319Z,30.98
